createdAt,value
2022-12-18T00:00:22.707Z,47.05
2022-12-18T00:05:24.457Z,44.85
2022-12-18T00:10:26.419Z,36.88
2022-12-18T00:15:28.129Z,41.67
2022-12-18T00:20:29.995Z,37.72
2022-12-18T00:25:37.051Z,38.90
2022-12-18T00:30:38.798Z,40.42
2022-12-18T00:35:40.544Z,32.53
2022-12-18T00:40:42.376Z,34.03
2022-12-18T00:45:44.147Z,35.33
2022-12-18T00:50:48.761Z,41.15
2022-12-18T00:55:50.669Z,39.85
2022-12-18T01:00:52.817Z,39.13
2022-12-18T01:05:54.576Z,48.45
2022-12-18T01:10:56.313Z,35.08
2022-12-18T01:15:58.430Z,40.78
2022-12-18T01:21:00.309Z,39.83
2022-12-18T01:26:10.213Z,36.42
2022-12-18T01:31:18.052Z,35.15
2022-12-18T01:36:21.244Z,33.58
2022-12-18T01:41:26.169Z,31.73
2022-12-18T01:46:28.842Z,31.90
2022-12-18T01:51:31.871Z,33.33
2022-12-18T01:56:33.634Z,39.22
2022-12-18T02:01:36.517Z,36.13
2022-12-18T02:06:42.245Z,37.03
2022-12-18T02:12:00.498Z,35.92
2022-12-18T02:17:12.078Z,36.88
2022-12-18T02:22:32.828Z,36.92
2022-12-18T02:27:37.632Z,32.72
2022-12-18T02:32:43.704Z,30.40
2022-12-18T02:37:47.616Z,38.10
2022-12-18T02:42:49.370Z,40.15
2022-12-18T02:47:53.596Z,39.30
2022-12-18T02:53:41.540Z,36.38
2022-12-18T02:59:02.601Z,33.40
2022-12-18T03:04:22.207Z,40.95
2022-12-18T03:09:33.844Z,40.40
2022-12-18T03:14:39.131Z,36.03
2022-12-18T03:19:43.564Z,36.53
2022-12-18T03:29:53.683Z,38.95
2022-12-18T03:35:05.511Z,34.17
2022-12-18T03:40:11.316Z,47.05
2022-12-18T03:45:19.376Z,35.65
2022-12-18T03:50:34.441Z,31.35
2022-12-18T03:55:37.407Z,35.40
2022-12-18T04:00:41.981Z,40.58
2022-12-18T04:10:49.674Z,40.42
2022-12-18T04:15:51.976Z,39.20
2022-12-18T04:20:56.534Z,38.10
2022-12-18T04:25:58.422Z,37.63
2022-12-18T04:31:29.483Z,34.33
2022-12-18T04:36:32.002Z,40.17
2022-12-18T04:41:33.815Z,37.08
2022-12-18T04:46:36.169Z,37.05
2022-12-18T04:51:38.438Z,32.72
2022-12-18T04:56:40.691Z,38.17
2022-12-18T05:01:42.488Z,37.08
2022-12-18T05:06:44.878Z,40.70
2022-12-18T05:11:47.590Z,38.97
2022-12-18T05:16:49.285Z,35.17
2022-12-18T05:21:51.029Z,38.47
2022-12-18T05:26:52.719Z,44.05
2022-12-18T05:31:54.460Z,40.75
2022-12-18T05:36:56.276Z,36.97
2022-12-18T05:41:57.976Z,38.53
2022-12-18T05:46:59.731Z,39.65
2022-12-18T05:52:01.729Z,42.47
2022-12-18T05:57:03.550Z,44.20
2022-12-18T06:02:05.401Z,41.63
2022-12-18T06:07:07.266Z,46.88
2022-12-18T06:12:08.962Z,50.35
2022-12-18T06:17:10.715Z,52.97
2022-12-18T06:22:12.456Z,57.25
2022-12-18T06:27:14.430Z,45.45
2022-12-18T06:32:16.322Z,51.53
2022-12-18T06:37:18.076Z,46.42
2022-12-18T06:42:19.839Z,39.97
2022-12-18T06:47:21.546Z,38.80
2022-12-18T06:52:23.246Z,58.90
2022-12-18T06:57:24.944Z,63.03
2022-12-18T07:02:26.758Z,64.20
2022-12-18T07:07:28.548Z,50.13
2022-12-18T07:12:30.290Z,53.30
2022-12-18T07:17:32.110Z,54.30
2022-12-18T07:22:33.984Z,53.47
2022-12-18T07:27:35.677Z,57.10
2022-12-18T07:32:37.546Z,54.72
2022-12-18T07:37:39.245Z,59.88
2022-12-18T07:42:40.980Z,56.42
2022-12-18T07:47:42.702Z,60.88
2022-12-18T07:52:44.449Z,53.03
2022-12-18T07:57:50.936Z,55.60
2022-12-18T08:02:54.488Z,47.28
2022-12-18T08:07:57.121Z,50.03
2022-12-18T08:13:04.566Z,51.25
2022-12-18T08:18:11.340Z,50.90
2022-12-18T08:23:15.693Z,48.75
2022-12-18T08:28:17.652Z,64.00
2022-12-18T08:33:19.408Z,47.95
2022-12-18T08:38:21.107Z,48.03
2022-12-18T08:43:41.519Z,39.95
2022-12-18T08:48:43.651Z,46.10
2022-12-18T08:53:45.880Z,51.03
2022-12-18T08:58:47.682Z,45.47
2022-12-18T09:03:50.763Z,43.90
2022-12-18T09:08:52.489Z,42.92
2022-12-18T09:13:55.302Z,39.65
2022-12-18T09:19:00.470Z,48.53
2022-12-18T09:24:02.488Z,44.58
2022-12-18T09:29:04.595Z,42.28
2022-12-18T09:34:06.892Z,39.97
2022-12-18T09:39:09.149Z,40.38
2022-12-18T09:44:23.354Z,40.70
2022-12-18T09:49:30.043Z,41.67
2022-12-18T09:54:40.249Z,37.33
2022-12-18T09:59:45.759Z,38.70
2022-12-18T10:04:57.275Z,37.53
2022-12-18T10:10:05.984Z,35.55
2022-12-18T10:15:31.022Z,33.25
2022-12-18T10:20:39.027Z,43.03
2022-12-18T10:26:02.552Z,37.80
2022-12-18T10:31:07.358Z,36.28
2022-12-18T10:36:09.325Z,56.97
2022-12-18T10:41:22.013Z,32.38
2022-12-18T10:46:23.847Z,31.00
2022-12-18T10:51:32.394Z,35.80
2022-12-18T10:56:36.423Z,34.10
2022-12-18T11:01:58.709Z,33.55
2022-12-18T11:07:09.406Z,31.40
2022-12-18T11:12:20.482Z,33.88
2022-12-18T11:17:36.649Z,32.85
2022-12-18T11:22:39.312Z,31.48
2022-12-18T11:27:41.423Z,31.58
2022-12-18T11:32:49.854Z,33.55
2022-12-18T11:38:23.791Z,30.90
2022-12-18T11:43:37.902Z,29.67
2022-12-18T11:48:53.089Z,30.98
2022-12-18T11:53:54.860Z,28.35
2022-12-18T11:59:18.628Z,32.47
2022-12-18T12:04:45.052Z,30.15
2022-12-18T12:09:55.980Z,33.33
2022-12-18T12:15:33.887Z,31.90
2022-12-18T12:20:53.649Z,30.88
2022-12-18T12:26:08.631Z,28.88
2022-12-18T12:31:38.219Z,28.17
2022-12-18T12:36:42.956Z,29.95
2022-12-18T12:47:16.513Z,27.88
2022-12-18T12:52:52.573Z,27.65
2022-12-18T12:58:23.333Z,27.63
2022-12-18T13:03:45.190Z,29.45
2022-12-18T13:08:56.522Z,28.38
2022-12-18T13:13:58.850Z,25.98
2022-12-18T13:19:01.667Z,29.17
2022-12-18T13:24:35.963Z,26.77
2022-12-18T13:29:46.527Z,25.87
2022-12-18T13:34:49.592Z,30.45
2022-12-18T13:39:51.415Z,32.30
2022-12-18T13:44:53.166Z,27.35
2022-12-18T13:49:55.686Z,30.33
2022-12-18T13:55:00.362Z,28.63
2022-12-18T14:00:21.439Z,25.95
2022-12-18T14:05:27.805Z,29.77
2022-12-18T14:10:48.464Z,28.90
2022-12-18T14:15:51.678Z,29.23
2022-12-18T14:20:57.813Z,28.58
2022-12-18T14:26:05.374Z,26.70
2022-12-18T14:31:19.452Z,30.98
2022-12-18T14:36:24.168Z,26.23
2022-12-18T14:41:27.245Z,32.15
2022-12-18T14:46:37.209Z,26.23
2022-12-18T14:51:39.240Z,26.77
2022-12-18T14:57:12.683Z,25.92
2022-12-18T15:02:21.336Z,30.83
2022-12-18T15:07:24.834Z,26.08
2022-12-18T15:12:37.252Z,25.27
2022-12-18T15:17:39.298Z,30.08
2022-12-18T15:22:41.034Z,30.17
2022-12-18T15:27:48.434Z,31.52
2022-12-18T15:32:52.008Z,25.20
2022-12-18T15:37:53.849Z,28.52
2022-12-18T15:43:15.005Z,26.00
2022-12-18T15:48:22.662Z,31.23
2022-12-18T15:53:26.254Z,27.20
2022-12-18T15:58:27.991Z,23.40
2022-12-18T16:03:29.895Z,25.02
2022-12-18T16:08:32.592Z,30.35
2022-12-18T16:13:34.388Z,29.77
2022-12-18T16:18:36.502Z,30.95
2022-12-18T16:23:38.507Z,33.15
2022-12-18T16:28:45.159Z,29.67
2022-12-18T16:33:49.944Z,34.42
2022-12-18T16:38:51.638Z,28.40
2022-12-18T16:43:55.117Z,36.67
2022-12-18T16:48:59.619Z,34.27
2022-12-18T16:54:04.007Z,33.92
2022-12-18T16:59:13.320Z,27.95
2022-12-18T17:04:15.575Z,27.60
2022-12-18T17:09:20.265Z,31.15
2022-12-18T17:14:25.461Z,32.38
2022-12-18T17:19:27.552Z,30.05
2022-12-18T17:24:34.547Z,26.33
2022-12-18T17:29:40.138Z,36.35
2022-12-18T17:34:47.014Z,33.67
2022-12-18T17:39:48.818Z,35.13
2022-12-18T17:44:50.763Z,37.28
2022-12-18T17:49:52.529Z,36.70
2022-12-18T17:54:55.237Z,40.65
2022-12-18T17:59:57.417Z,36.40
2022-12-18T18:04:59.253Z,31.10
2022-12-18T18:10:00.991Z,34.05
2022-12-18T18:15:02.732Z,33.42
2022-12-18T18:20:06.150Z,33.25
2022-12-18T18:25:07.927Z,35.22
2022-12-18T18:30:12.327Z,43.78
2022-12-18T18:35:44.673Z,33.63
2022-12-18T18:40:36.094Z,68.97
2022-12-18T18:45:38.317Z,41.63
2022-12-18T18:50:43.982Z,38.80
2022-12-18T18:55:51.694Z,32.60
2022-12-18T19:01:06.627Z,35.95
2022-12-18T19:06:13.914Z,35.20
2022-12-18T19:11:36.542Z,36.53
2022-12-18T19:16:39.580Z,34.15
2022-12-18T19:21:41.447Z,34.80
2022-12-18T19:26:43.629Z,35.88
2022-12-18T19:31:45.571Z,46.83
2022-12-18T19:36:48.533Z,37.90
2022-12-18T19:41:52.416Z,41.05
2022-12-18T19:46:54.179Z,39.17
2022-12-18T19:51:55.965Z,40.88
2022-12-18T19:56:57.710Z,35.65
2022-12-18T20:02:00.985Z,42.22
2022-12-18T20:12:06.040Z,42.83
2022-12-18T20:17:08.069Z,36.67
2022-12-18T20:22:10.097Z,40.30
2022-12-18T20:27:15.339Z,34.90
2022-12-18T20:32:20.955Z,41.25
2022-12-18T20:37:22.894Z,37.45
2022-12-18T20:42:25.490Z,38.03
2022-12-18T20:47:27.526Z,35.55
2022-12-18T20:52:29.349Z,38.92
2022-12-18T20:57:31.082Z,39.95
2022-12-18T21:02:33.271Z,40.03
2022-12-18T21:07:35.142Z,37.42
2022-12-18T21:12:49.612Z,38.03
2022-12-18T21:18:03.266Z,37.35
2022-12-18T21:23:15.647Z,40.28
2022-12-18T21:28:18.665Z,37.70
2022-12-18T21:33:20.687Z,44.47
2022-12-18T21:38:22.410Z,40.17
2022-12-18T21:43:42.822Z,42.05
2022-12-18T21:48:44.635Z,38.83
2022-12-18T21:53:46.332Z,41.40
2022-12-18T21:58:56.749Z,38.40
2022-12-18T22:03:59.120Z,36.97
2022-12-18T22:09:00.990Z,38.85
2022-12-18T22:14:02.713Z,45.85
2022-12-18T22:19:06.632Z,41.35
2022-12-18T22:24:14.834Z,36.17
2022-12-18T22:29:37.771Z,36.53
2022-12-18T22:34:39.507Z,39.53
2022-12-18T22:39:41.205Z,40.25
2022-12-18T22:44:43.561Z,39.05
2022-12-18T22:49:45.303Z,39.50
2022-12-18T22:54:47.051Z,31.20
2022-12-18T22:59:50.101Z,43.15
2022-12-18T23:04:51.970Z,34.42
2022-12-18T23:10:00.592Z,36.15
2022-12-18T23:15:02.771Z,40.10
2022-12-18T23:20:04.929Z,42.15
2022-12-18T23:25:10.929Z,39.20
2022-12-18T23:30:13.044Z,35.25
2022-12-18T23:35:15.507Z,35.70
2022-12-18T23:40:18.138Z,39.75
2022-12-18T23:45:19.861Z,35.60
2022-12-18T23:50:25.418Z,37.67
2022-12-18T23:55:31.822Z,41.55
